createdAt,value
2018-01-15T00:00:04.910Z,-2.26
2018-01-15T00:01:14.092Z,-2.22
2018-01-15T00:02:24.117Z,-2.25
2018-01-15T00:03:34.137Z,-2.29
2018-01-15T00:04:44.110Z,-2.25
2018-01-15T00:05:54.083Z,-2.15
2018-01-15T00:07:03.796Z,-2.25
2018-01-15T00:08:13.504Z,-2.23
2018-01-15T00:09:23.209Z,-2.23
2018-01-15T00:10:32.924Z,-2.26
2018-01-15T00:11:42.893Z,-2.25
2018-01-15T00:12:52.871Z,-2.25
2018-01-15T00:14:02.902Z,-2.18
2018-01-15T00:15:12.877Z,-2.2
2018-01-15T00:16:22.319Z,-2.2
2018-01-15T00:17:32.077Z,-2.15
2018-01-15T00:18:42.059Z,-2.26
2018-01-15T00:19:51.768Z,-2.26
2018-01-15T00:21:01.746Z,-2.18
2018-01-15T00:22:11.190Z,-2.29
2018-01-15T00:23:21.169Z,-2.25
2018-01-15T00:24:30.613Z,-2.32
2018-01-15T00:25:40.321Z,-2.36
2018-01-15T00:26:50.292Z,-2.28
2018-01-15T00:28:00.271Z,-2.22
2018-01-15T00:29:09.723Z,-2.29
2018-01-15T00:30:19.703Z,-2.2
2018-01-15T00:31:29.154Z,-2.23
2018-01-15T00:32:39.123Z,-2.32
2018-01-15T00:33:48.565Z,-2.23
2018-01-15T00:34:58.276Z,-2.17
2018-01-15T00:36:07.989Z,-2.28
2018-01-15T00:37:17.961Z,-2.25
2018-01-15T00:38:27.400Z,-2.26
2018-01-15T00:39:37.109Z,-2.2
2018-01-15T00:40:46.818Z,-2.23
2018-01-15T00:41:56.787Z,-2.25
2018-01-15T00:43:06.759Z,-2.33
2018-01-15T00:44:16.465Z,-2.22
2018-01-15T00:45:26.438Z,-2.26
2018-01-15T00:46:36.409Z,-2.28
2018-01-15T00:47:46.378Z,-2.34
2018-01-15T00:48:55.821Z,-2.29
2018-01-15T00:50:05.264Z,-2.23
2018-01-15T00:51:15.237Z,-2.26
2018-01-15T00:52:24.946Z,-2.26
2018-01-15T00:53:34.919Z,-2.22
2018-01-15T00:54:44.410Z,-2.34
2018-01-15T00:55:54.378Z,-2.26
2018-01-15T00:57:04.087Z,-2.29
2018-01-15T00:58:14.059Z,-2.17
2018-01-15T00:59:24.033Z,-2.25
2018-01-15T01:00:33.741Z,-2.2
2018-01-15T01:01:43.447Z,-2.29
2018-01-15T01:02:53.160Z,-2.29
2018-01-15T01:04:03.127Z,-2.28
2018-01-15T01:05:13.115Z,-2.15
2018-01-15T01:06:23.087Z,-2.23
2018-01-15T01:07:32.797Z,-2.26
2018-01-15T01:08:42.768Z,-2.29
2018-01-15T01:09:52.211Z,-2.29
2018-01-15T01:11:02.177Z,-2.15
2018-01-15T01:12:12.149Z,-2.32
2018-01-15T01:13:22.124Z,-2.15
2018-01-15T01:14:31.847Z,-2.28
2018-01-15T01:15:41.821Z,-2.17
2018-01-15T01:16:51.798Z,-2.18
2018-01-15T01:18:01.778Z,-2.32
2018-01-15T01:19:11.754Z,-2.14
2018-01-15T01:20:21.729Z,-2.29
2018-01-15T01:21:31.177Z,-2.33
2018-01-15T01:22:41.174Z,-2.22
2018-01-15T01:23:50.616Z,-2.22
2018-01-15T01:25:00.324Z,-2.18
2018-01-15T01:26:09.768Z,-2.17
2018-01-15T01:27:19.473Z,-2.17
2018-01-15T01:28:29.182Z,-2.15
2018-01-15T01:29:39.221Z,-2.18
2018-01-15T01:30:49.193Z,-2.15
2018-01-15T01:31:59.165Z,-2.2
2018-01-15T01:33:08.615Z,-2.23
2018-01-15T01:34:18.635Z,-2.17
2018-01-15T01:35:28.079Z,-2.17
2018-01-15T01:36:37.835Z,-2.17
2018-01-15T01:37:47.279Z,-2.25
2018-01-15T01:38:56.721Z,-2.15
2018-01-15T01:40:06.695Z,-2.25
2018-01-15T01:41:16.450Z,-2.23
2018-01-15T01:42:25.894Z,-2.15
2018-01-15T01:43:35.341Z,-2.18
2018-01-15T01:44:45.327Z,-2.23
2018-01-15T01:45:55.298Z,-2.23
2018-01-15T01:47:05.268Z,-2.23
2018-01-15T01:48:14.977Z,-2.2
2018-01-15T01:49:24.948Z,-2.13
2018-01-15T01:50:34.925Z,-2.22
2018-01-15T01:51:44.892Z,-2.23
2018-01-15T01:52:54.599Z,-2.22
2018-01-15T01:54:04.569Z,-2.18
2018-01-15T01:55:14.543Z,-2.22
2018-01-15T01:56:24.521Z,-2.13
2018-01-15T01:57:34.498Z,-2.11
2018-01-15T01:58:44.521Z,-2.15
2018-01-15T01:59:54.500Z,-2.15
2018-01-15T02:01:04.472Z,-2.14
2018-01-15T02:02:14.184Z,-2.11
2018-01-15T02:03:24.166Z,-2.13
2018-01-15T02:04:34.185Z,-2.14
2018-01-15T02:05:44.154Z,-2.14
2018-01-15T02:06:54.130Z,-2.08
2018-01-15T02:08:04.102Z,-2.08
2018-01-15T02:09:13.809Z,-2.08
2018-01-15T02:10:23.624Z,-2.13
2018-01-15T02:11:33.073Z,-2.07
2018-01-15T02:12:43.045Z,-2.13
2018-01-15T02:13:53.071Z,-2.15
2018-01-15T02:15:03.040Z,-2.1
2018-01-15T02:16:13.021Z,-2.04
2018-01-15T02:17:22.991Z,-2.08
2018-01-15T02:18:32.438Z,-2.05
2018-01-15T02:19:42.436Z,-2.04
2018-01-15T02:20:52.409Z,-2.1
2018-01-15T02:22:02.117Z,-1.99
2018-01-15T02:23:12.093Z,-2.05
2018-01-15T02:24:21.802Z,-2.05
2018-01-15T02:25:31.513Z,-2.1
2018-01-15T02:26:41.278Z,-2.1
2018-01-15T02:27:51.253Z,-2.1
2018-01-15T02:29:00.964Z,-2.1
2018-01-15T02:30:10.687Z,-2.13
2018-01-15T02:31:20.660Z,-2.1
2018-01-15T02:32:29.642Z,-2.18
2018-01-15T02:33:39.621Z,-2.11
2018-01-15T02:34:49.597Z,-2.08
2018-01-15T02:35:59.313Z,-2.13
2018-01-15T02:37:09.291Z,-2.11
2018-01-15T02:38:19.003Z,-2.14
2018-01-15T02:39:28.712Z,-2.13
2018-01-15T02:40:38.701Z,-2.17
2018-01-15T02:41:48.413Z,-2.18
2018-01-15T02:42:58.399Z,-2.22
2018-01-15T02:44:08.379Z,-2.11
2018-01-15T02:45:18.188Z,-2.11
2018-01-15T02:46:27.898Z,-2.14
2018-01-15T02:47:37.878Z,-2.11
2018-01-15T02:48:47.861Z,-2.2
2018-01-15T02:49:57.575Z,-2.18
2018-01-15T02:51:07.548Z,-2.2
2018-01-15T02:52:17.529Z,-2.22
2018-01-15T02:53:27.249Z,-2.25
2018-01-15T02:54:37.222Z,-2.18
2018-01-15T02:55:47.208Z,-2.33
2018-01-15T02:56:56.925Z,-2.26
2018-01-15T02:58:06.631Z,-2.2
2018-01-15T02:59:16.612Z,-2.23
2018-01-15T03:00:26.584Z,-2.34
2018-01-15T03:01:36.556Z,-2.26
2018-01-15T03:02:46.364Z,-2.34
2018-01-15T03:03:56.340Z,-2.32
2018-01-15T03:05:06.326Z,-2.32
2018-01-15T03:06:16.037Z,-2.37
2018-01-15T03:07:25.480Z,-2.25
2018-01-15T03:08:35.241Z,-2.34
2018-01-15T03:09:44.947Z,-2.22
2018-01-15T03:10:54.917Z,-2.33
2018-01-15T03:12:04.890Z,-2.25
2018-01-15T03:13:14.862Z,-2.32
2018-01-15T03:14:24.835Z,-2.42
2018-01-15T03:15:34.816Z,-2.33
2018-01-15T03:16:44.793Z,-2.33
2018-01-15T03:17:54.762Z,-2.28
2018-01-15T03:19:04.746Z,-2.26
2018-01-15T03:20:14.456Z,-2.32
2018-01-15T03:21:24.431Z,-2.33
2018-01-15T03:22:34.197Z,-2.26
2018-01-15T03:23:43.386Z,-2.28
2018-01-15T03:24:53.354Z,-2.28
2018-01-15T03:26:03.326Z,-2.34
2018-01-15T03:27:13.300Z,-2.29
2018-01-15T03:28:23.270Z,-2.2
2018-01-15T03:29:32.977Z,-2.29
2018-01-15T03:30:42.952Z,-2.29
2018-01-15T03:31:52.777Z,-2.28
2018-01-15T03:33:02.762Z,-2.28
2018-01-15T03:34:12.738Z,-2.34
2018-01-15T03:35:22.736Z,-2.33
2018-01-15T03:36:32.451Z,-2.39
2018-01-15T03:37:42.470Z,-2.36
2018-01-15T03:38:52.449Z,-2.36
2018-01-15T03:40:02.160Z,-2.34
2018-01-15T03:41:12.139Z,-2.47
2018-01-15T03:42:21.849Z,-2.42
2018-01-15T03:43:31.814Z,-2.42
2018-01-15T03:44:41.554Z,-2.4
2018-01-15T03:45:51.263Z,-2.51
2018-01-15T03:47:01.245Z,-2.5
2018-01-15T03:48:10.422Z,-2.39
2018-01-15T03:49:20.391Z,-2.37
2018-01-15T03:50:30.375Z,-2.4
2018-01-15T03:51:40.089Z,-2.39
2018-01-15T03:52:49.810Z,-2.34
2018-01-15T03:53:59.516Z,-2.34
2018-01-15T03:55:09.226Z,-2.42
2018-01-15T03:56:19.196Z,-2.36
2018-01-15T03:57:28.904Z,-2.39
2018-01-15T03:58:38.933Z,-2.42
2018-01-15T03:59:48.641Z,-2.4
2018-01-15T04:03:30.976Z,-2.39
2018-01-15T04:04:40.946Z,-2.39
2018-01-15T04:05:50.920Z,-2.48
2018-01-15T04:07:00.624Z,-2.5
2018-01-15T04:08:10.595Z,-2.51
2018-01-15T04:09:20.303Z,-2.51
2018-01-15T04:10:30.276Z,-2.54
2018-01-15T04:11:40.246Z,-2.47
2018-01-15T04:12:49.951Z,-2.52
2018-01-15T04:13:59.664Z,-2.48
2018-01-15T04:15:09.370Z,-2.5
2018-01-15T04:16:19.342Z,-2.52
2018-01-15T04:17:29.312Z,-2.52
2018-01-15T04:18:39.017Z,-2.52
2018-01-15T04:19:48.989Z,-2.5
2018-01-15T04:20:58.964Z,-2.5
2018-01-15T04:22:08.940Z,-2.5
2018-01-15T04:23:18.908Z,-2.51
2018-01-15T04:24:28.352Z,-2.51
2018-01-15T04:25:38.057Z,-2.44
2018-01-15T04:26:47.836Z,-2.54
2018-01-15T04:27:57.544Z,-2.51
2018-01-15T04:29:07.517Z,-2.47
2018-01-15T04:30:17.489Z,-2.55
2018-01-15T04:31:27.215Z,-2.48
2018-01-15T04:32:36.663Z,-2.52
2018-01-15T04:33:46.636Z,-2.5
2018-01-15T04:34:56.657Z,-2.61
2018-01-15T04:36:06.633Z,-2.51
2018-01-15T04:37:16.602Z,-2.47
2018-01-15T04:38:26.313Z,-2.51
2018-01-15T04:39:36.296Z,-2.4
2018-01-15T04:40:46.267Z,-2.5
2018-01-15T04:41:56.237Z,-2.55
2018-01-15T04:43:05.955Z,-2.48
2018-01-15T04:44:15.929Z,-2.42
2018-01-15T04:45:25.901Z,-2.45
2018-01-15T04:46:35.874Z,-2.51
2018-01-15T04:47:45.577Z,-2.51
2018-01-15T04:48:55.548Z,-2.47
2018-01-15T04:50:05.255Z,-2.45
2018-01-15T04:51:14.961Z,-2.5
2018-01-15T04:52:24.928Z,-2.45
2018-01-15T04:53:34.636Z,-2.52
2018-01-15T04:54:44.614Z,-2.5
2018-01-15T04:55:54.330Z,-2.45
2018-01-15T04:57:04.301Z,-2.51
2018-01-15T04:58:14.273Z,-2.45
2018-01-15T04:59:24.016Z,-2.44
2018-01-15T05:00:33.735Z,-2.52
2018-01-15T05:01:43.710Z,-2.58
2018-01-15T05:02:53.421Z,-2.5
2018-01-15T05:04:03.397Z,-2.61
2018-01-15T05:05:13.416Z,-2.52
2018-01-15T05:06:23.395Z,-2.58
2018-01-15T05:07:32.845Z,-2.52
2018-01-15T05:08:42.818Z,-2.51
2018-01-15T05:09:52.792Z,-2.61
2018-01-15T05:11:02.497Z,-2.54
2018-01-15T05:12:12.205Z,-2.54
2018-01-15T05:13:21.915Z,-2.63
2018-01-15T05:14:31.886Z,-2.52
2018-01-15T05:15:41.864Z,-2.57
2018-01-15T05:16:51.839Z,-2.62
2018-01-15T05:18:01.809Z,-2.54
2018-01-15T05:19:11.832Z,-2.55
2018-01-15T05:20:21.273Z,-2.52
2018-01-15T05:21:30.977Z,-2.52
2018-01-15T05:22:40.688Z,-2.55
2018-01-15T05:23:50.660Z,-2.57
2018-01-15T05:25:00.631Z,-2.61
2018-01-15T05:26:10.334Z,-2.57
2018-01-15T05:27:20.309Z,-2.55
2018-01-15T05:28:29.756Z,-2.58
2018-01-15T05:29:39.728Z,-2.54
2018-01-15T05:30:49.439Z,-2.54
2018-01-15T05:31:59.411Z,-2.58
2018-01-15T05:33:09.398Z,-2.63
2018-01-15T05:34:19.376Z,-2.55
2018-01-15T05:35:29.084Z,-2.62
2018-01-15T05:36:39.064Z,-2.58
2018-01-15T05:37:49.042Z,-2.57
2018-01-15T05:38:58.759Z,-2.55
2018-01-15T05:40:08.468Z,-2.58
2018-01-15T05:41:18.442Z,-2.58
2018-01-15T05:42:28.196Z,-2.55
2018-01-15T05:43:37.900Z,-2.55
2018-01-15T05:44:47.874Z,-2.66
2018-01-15T05:45:57.580Z,-2.65
2018-01-15T05:47:07.552Z,-2.62
2018-01-15T05:48:17.584Z,-2.57
2018-01-15T05:49:27.027Z,-2.65
2018-01-15T05:50:37.031Z,-2.57
2018-01-15T05:51:47.001Z,-2.65
2018-01-15T05:52:56.975Z,-2.65
2018-01-15T05:54:07.052Z,-2.63
2018-01-15T05:55:16.764Z,-2.68
2018-01-15T05:56:26.469Z,-2.63
2018-01-15T05:57:36.443Z,-2.68
2018-01-15T05:58:46.148Z,-2.69
2018-01-15T05:59:56.124Z,-2.57
2018-01-15T06:01:05.828Z,-2.63
2018-01-15T06:02:15.531Z,-2.58
2018-01-15T06:03:25.507Z,-2.68
2018-01-15T06:04:35.478Z,-2.69
2018-01-15T06:05:45.450Z,-2.69
2018-01-15T06:06:55.157Z,-2.63
2018-01-15T06:08:05.126Z,-2.62
2018-01-15T06:09:15.098Z,-2.66
2018-01-15T06:10:24.803Z,-2.68
2018-01-15T06:11:34.613Z,-2.61
2018-01-15T06:12:44.584Z,-2.69
2018-01-15T06:13:54.558Z,-2.68
2018-01-15T06:15:04.531Z,-2.68
2018-01-15T06:16:14.511Z,-2.66
2018-01-15T06:17:23.953Z,-2.66
2018-01-15T06:18:33.924Z,-2.58
2018-01-15T06:19:43.632Z,-2.7
2018-01-15T06:20:53.602Z,-2.65
2018-01-15T06:22:03.575Z,-2.61
2018-01-15T06:23:13.596Z,-2.69
2018-01-15T06:24:23.304Z,-2.68
2018-01-15T06:25:32.750Z,-2.68
2018-01-15T06:26:42.461Z,-2.69
2018-01-15T06:27:52.449Z,-2.63
2018-01-15T06:29:02.554Z,-2.69
2018-01-15T06:30:12.525Z,-2.62
2018-01-15T06:31:22.232Z,-2.7
2018-01-15T06:32:31.939Z,-2.65
2018-01-15T06:33:41.699Z,-2.72
2018-01-15T06:34:51.674Z,-2.66
2018-01-15T06:36:01.116Z,-2.75
2018-01-15T06:37:11.093Z,-2.62
2018-01-15T06:38:21.064Z,-2.61
2018-01-15T06:39:30.771Z,-2.65
2018-01-15T06:40:40.532Z,-2.63
2018-01-15T06:41:50.503Z,-2.63
2018-01-15T06:43:00.214Z,-2.62
2018-01-15T06:44:09.927Z,-2.68
2018-01-15T06:45:19.906Z,-2.69
2018-01-15T06:46:29.710Z,-2.65
2018-01-15T06:47:39.419Z,-2.61
2018-01-15T06:48:49.393Z,-2.63
2018-01-15T06:49:59.368Z,-2.68
2018-01-15T06:51:09.342Z,-2.72
2018-01-15T06:52:19.370Z,-2.68
2018-01-15T06:53:29.077Z,-2.68
2018-01-15T06:54:39.052Z,-2.69
2018-01-15T06:55:48.761Z,-2.68
2018-01-15T06:56:58.469Z,-2.65
2018-01-15T06:58:08.174Z,-2.62
2018-01-15T06:59:18.149Z,-2.62
2018-01-15T07:00:27.855Z,-2.75
2018-01-15T07:01:37.828Z,-2.73
2018-01-15T07:02:47.314Z,-2.65
2018-01-15T07:03:57.288Z,-2.69
2018-01-15T07:05:07.260Z,-2.65
2018-01-15T07:06:17.231Z,-2.7
2018-01-15T07:07:26.940Z,-2.62
2018-01-15T07:08:36.652Z,-2.69
2018-01-15T07:09:46.641Z,-2.69
2018-01-15T07:10:56.613Z,-2.63
2018-01-15T07:12:06.587Z,-2.63
2018-01-15T07:13:16.304Z,-2.62
2018-01-15T07:14:26.012Z,-2.63
2018-01-15T07:15:35.191Z,-2.66
2018-01-15T07:16:45.168Z,-2.68
2018-01-15T07:17:54.894Z,-2.69
2018-01-15T07:19:04.885Z,-2.62
2018-01-15T07:20:14.592Z,-2.68
2018-01-15T07:21:24.612Z,-2.66
2018-01-15T07:22:34.322Z,-2.63
2018-01-15T07:23:44.294Z,-2.68
2018-01-15T07:24:54.270Z,-2.63
2018-01-15T07:26:03.987Z,-2.66
2018-01-15T07:27:13.535Z,-2.63
2018-01-15T07:28:23.509Z,-2.65
2018-01-15T07:29:33.236Z,-2.66
2018-01-15T07:30:42.682Z,-2.68
2018-01-15T07:31:52.654Z,-2.65
2018-01-15T07:33:02.101Z,-2.66
2018-01-15T07:34:12.072Z,-2.66
2018-01-15T07:35:22.042Z,-2.69
2018-01-15T07:36:31.750Z,-2.66
2018-01-15T07:37:41.457Z,-2.66
2018-01-15T07:38:51.480Z,-2.69
2018-01-15T07:40:01.189Z,-2.68
2018-01-15T07:41:11.178Z,-2.69
2018-01-15T07:42:21.153Z,-2.65
2018-01-15T07:43:31.129Z,-2.65
2018-01-15T07:44:41.107Z,-2.66
2018-01-15T07:45:51.130Z,-2.63
2018-01-15T07:47:01.101Z,-2.66
2018-01-15T07:48:10.543Z,-2.68
2018-01-15T07:49:20.517Z,-2.65
2018-01-15T07:50:29.481Z,-2.65
2018-01-15T07:51:39.455Z,-2.69
2018-01-15T07:52:49.223Z,-2.68
2018-01-15T07:53:59.208Z,-2.65
2018-01-15T07:55:09.177Z,-2.73
2018-01-15T07:56:19.148Z,-2.65
2018-01-15T07:57:28.589Z,-2.7
2018-01-15T07:58:38.296Z,-2.72
2018-01-15T07:59:48.267Z,-2.72
2018-01-15T08:00:57.712Z,-2.73
2018-01-15T08:02:07.004Z,-2.7
2018-01-15T08:03:17.039Z,-2.8
2018-01-15T08:04:26.749Z,-2.84
2018-01-15T08:05:36.456Z,-2.91
2018-01-15T08:06:45.909Z,-2.91
2018-01-15T08:07:55.884Z,-2.96
2018-01-15T08:09:05.326Z,-2.96
2018-01-15T08:10:14.770Z,-3.01
2018-01-15T08:11:24.481Z,-2.99
2018-01-15T08:12:34.454Z,-3.01
2018-01-15T08:13:45.272Z,-3.02
2018-01-15T08:14:55.245Z,-2.96
2018-01-15T08:16:05.261Z,-3.02
2018-01-15T08:17:14.712Z,-2.96
2018-01-15T08:18:24.685Z,-2.98
2018-01-15T08:19:33.913Z,-2.96
2018-01-15T08:20:43.890Z,-3.01
2018-01-15T08:21:53.655Z,-2.94
2018-01-15T08:23:03.627Z,-3.02
2018-01-15T08:24:13.336Z,-3.02
2018-01-15T08:25:23.408Z,-2.98
2018-01-15T08:26:32.852Z,-2.94
2018-01-15T08:27:42.561Z,-2.94
2018-01-15T08:28:52.318Z,-2.98
2018-01-15T08:30:01.764Z,-2.98
2018-01-15T08:31:11.798Z,-3.02
2018-01-15T08:32:21.239Z,-3.01
2018-01-15T08:33:31.281Z,-2.99
2018-01-15T08:34:41.002Z,-2.98
2018-01-15T08:35:50.974Z,-2.99
2018-01-15T08:37:00.684Z,-2.98
2018-01-15T08:38:10.394Z,-3.04
2018-01-15T08:39:20.367Z,-3.02
2018-01-15T08:40:29.814Z,-2.98
2018-01-15T08:41:39.794Z,-2.99
2018-01-15T08:42:49.868Z,-2.99
2018-01-15T08:43:59.573Z,-3.04
2018-01-15T08:45:09.541Z,-3.02
2018-01-15T08:46:19.254Z,-2.98
2018-01-15T08:47:28.965Z,-3.04
2018-01-15T08:48:38.457Z,-2.98
2018-01-15T08:49:48.428Z,-2.93
2018-01-15T08:50:57.931Z,-2.98
2018-01-15T08:52:07.114Z,-3.02
2018-01-15T08:53:17.092Z,-3.07
2018-01-15T08:54:27.064Z,-2.99
2018-01-15T08:55:37.037Z,-3.05
2018-01-15T08:56:46.745Z,-2.98
2018-01-15T08:57:56.724Z,-3.19
2018-01-15T08:59:06.701Z,-3.11
2018-01-15T09:00:16.668Z,-3.09
2018-01-15T09:01:26.377Z,-3.11
2018-01-15T09:02:36.348Z,-3.12
2018-01-15T09:03:46.074Z,-3.08
2018-01-15T09:04:56.050Z,-3.12
2018-01-15T09:06:05.759Z,-3.15
2018-01-15T09:07:15.731Z,-3.2
2018-01-15T09:08:25.705Z,-3.11
2018-01-15T09:09:35.418Z,-3.14
2018-01-15T09:10:45.396Z,-3.2
2018-01-15T09:11:55.366Z,-3.22
2018-01-15T09:13:05.398Z,-3.19
2018-01-15T09:14:15.103Z,-3.08
2018-01-15T09:15:24.814Z,-3.08
2018-01-15T09:16:34.795Z,-3.22
2018-01-15T09:17:44.498Z,-3.19
2018-01-15T09:18:54.202Z,-3.11
2018-01-15T09:20:04.174Z,-3.17
2018-01-15T09:21:13.879Z,-3.17
2018-01-15T09:22:23.858Z,-3.15
2018-01-15T09:23:33.299Z,-3.12
2018-01-15T09:24:43.270Z,-3.17
2018-01-15T09:25:52.979Z,-3.17
2018-01-15T09:27:02.950Z,-3.17
2018-01-15T09:28:12.920Z,-3.17
2018-01-15T09:29:22.627Z,-3.19
2018-01-15T09:30:32.599Z,-3.09
2018-01-15T09:31:42.042Z,-3.11
2018-01-15T09:32:52.011Z,-3.12
2018-01-15T09:34:01.988Z,-3.11
2018-01-15T09:35:11.692Z,-3.05
2018-01-15T09:36:21.672Z,-3.14
2018-01-15T09:37:31.114Z,-3.09
2018-01-15T09:38:40.876Z,-3.12
2018-01-15T09:39:50.854Z,-3.09
2018-01-15T09:41:00.825Z,-3.07
2018-01-15T09:42:10.537Z,-3.05
2018-01-15T09:43:20.133Z,-3.09
2018-01-15T09:44:29.579Z,-3.07
2018-01-15T09:45:39.021Z,-3.07
2018-01-15T09:46:49.006Z,-3.11
2018-01-15T09:47:58.990Z,-2.99
2018-01-15T09:49:08.964Z,-3.15
2018-01-15T09:50:18.407Z,-3.02
2018-01-15T09:51:28.115Z,-3.11
2018-01-15T09:52:38.088Z,-3.05
2018-01-15T09:53:48.059Z,-3.08
2018-01-15T09:54:58.050Z,-3.07
2018-01-15T09:56:07.760Z,-3.08
2018-01-15T09:57:17.730Z,-3.04
2018-01-15T09:58:27.173Z,-3.07
2018-01-15T09:59:37.146Z,-3.02
2018-01-15T10:00:46.860Z,-3.01
2018-01-15T10:01:56.836Z,-3.02
2018-01-15T10:03:06.280Z,-3.01
2018-01-15T10:04:16.300Z,-2.94
2018-01-15T10:05:26.279Z,-2.93
2018-01-15T10:06:35.723Z,-2.94
2018-01-15T10:07:45.438Z,-2.91
2018-01-15T10:08:55.413Z,-2.93
2018-01-15T10:10:04.861Z,-2.99
2018-01-15T10:11:14.579Z,-2.87
2018-01-15T10:12:24.022Z,-2.83
2018-01-15T10:13:33.999Z,-2.87
2018-01-15T10:14:43.447Z,-2.89
2018-01-15T10:15:53.259Z,-2.84
2018-01-15T10:17:02.701Z,-2.89
2018-01-15T10:18:12.412Z,-2.94
2018-01-15T10:19:22.120Z,-2.91
2018-01-15T10:20:31.828Z,-2.8
2018-01-15T10:21:41.804Z,-2.91
2018-01-15T10:22:51.771Z,-2.89
2018-01-15T10:24:01.479Z,-2.81
2018-01-15T10:25:11.450Z,-2.73
2018-01-15T10:26:21.422Z,-2.78
2018-01-15T10:27:31.126Z,-2.73
2018-01-15T10:28:40.569Z,-2.72
2018-01-15T10:29:50.537Z,-2.66
2018-01-15T10:31:00.509Z,-2.72
2018-01-15T10:32:10.216Z,-2.72
2018-01-15T10:33:19.922Z,-2.68
2018-01-15T10:34:29.365Z,-2.68
2018-01-15T10:35:39.338Z,-2.72
2018-01-15T10:36:49.311Z,-2.68
2018-01-15T10:37:59.282Z,-2.63
2018-01-15T10:39:09.037Z,-2.7
2018-01-15T10:40:18.749Z,-2.62
2018-01-15T10:41:28.456Z,-2.66
2018-01-15T10:42:38.429Z,-2.57
2018-01-15T10:43:48.488Z,-2.52
2018-01-15T10:44:58.472Z,-2.54
2018-01-15T10:46:08.443Z,-2.51
2018-01-15T10:47:18.422Z,-2.54
2018-01-15T10:48:28.127Z,-2.55
2018-01-15T10:49:38.099Z,-2.62
2018-01-15T10:50:48.073Z,-2.62
2018-01-15T10:51:58.049Z,-2.58
2018-01-15T10:53:07.756Z,-2.58
2018-01-15T10:54:17.464Z,-2.58
2018-01-15T10:55:27.464Z,-2.58
2018-01-15T10:56:37.181Z,-2.57
2018-01-15T10:57:46.892Z,-2.52
2018-01-15T10:58:56.382Z,-2.54
2018-01-15T11:00:06.363Z,-2.55
2018-01-15T11:01:15.807Z,-2.52
2018-01-15T11:02:25.751Z,-2.55
2018-01-15T11:03:35.727Z,-2.55
2018-01-15T11:04:45.444Z,-2.42
2018-01-15T11:05:55.197Z,-2.42
2018-01-15T11:07:04.641Z,-2.5
2018-01-15T11:08:14.716Z,-2.44
2018-01-15T11:09:24.693Z,-2.45
2018-01-15T11:10:34.664Z,-2.33
2018-01-15T11:11:44.651Z,-2.47
2018-01-15T11:12:54.443Z,-2.36
2018-01-15T11:14:04.504Z,-2.33
2018-01-15T11:15:14.531Z,-2.36
2018-01-15T11:16:24.326Z,-2.33
2018-01-15T11:17:34.038Z,-2.36
2018-01-15T11:18:44.014Z,-2.33
2018-01-15T11:19:53.753Z,-2.33
2018-01-15T11:21:03.487Z,-2.32
2018-01-15T11:22:13.464Z,-2.32
2018-01-15T11:23:23.173Z,-2.29
2018-01-15T11:24:32.934Z,-2.32
2018-01-15T11:25:42.730Z,-2.26
2018-01-15T11:26:52.144Z,-2.34
2018-01-15T11:28:02.113Z,-2.33
2018-01-15T11:29:12.188Z,-2.28
2018-01-15T11:30:22.158Z,-2.36
2018-01-15T11:31:32.127Z,-2.32
2018-01-15T11:32:41.837Z,-2.33
2018-01-15T11:33:51.806Z,-2.33
2018-01-15T11:35:01.783Z,-2.39
2018-01-15T11:36:11.752Z,-2.33
2018-01-15T11:37:21.731Z,-2.34
2018-01-15T11:38:31.697Z,-2.34
2018-01-15T11:39:41.666Z,-2.18
2018-01-15T11:40:51.633Z,-2.33
2018-01-15T11:42:01.609Z,-2.23
2018-01-15T11:43:11.581Z,-2.18
2018-01-15T11:44:21.287Z,-2.2
2018-01-15T11:45:30.727Z,-2.25
2018-01-15T11:46:40.168Z,-2.22
2018-01-15T11:47:50.135Z,-2.18
2018-01-15T11:49:00.104Z,-2.25
2018-01-15T11:50:10.082Z,-2.23
2018-01-15T11:51:19.794Z,-2.2
2018-01-15T11:52:29.764Z,-2.23
2018-01-15T11:53:39.758Z,-2.14
2018-01-15T11:54:49.458Z,-2.22
2018-01-15T11:55:59.168Z,-2.17
2018-01-15T11:57:08.876Z,-2.14
2018-01-15T11:58:18.858Z,-2.13
2018-01-15T11:59:28.832Z,-2.11
2018-01-15T12:00:38.906Z,-2.1
2018-01-15T12:01:48.611Z,-2.08
2018-01-15T12:02:58.319Z,-2.15
2018-01-15T12:04:08.030Z,-2.15
2018-01-15T12:05:18.001Z,-2.1
2018-01-15T12:06:27.971Z,-2.1
2018-01-15T12:07:38.001Z,-2.13
2018-01-15T12:08:47.739Z,-2.13
2018-01-15T12:09:57.447Z,-2.02
2018-01-15T12:11:07.157Z,-2.13
2018-01-15T12:12:17.131Z,-2.05
2018-01-15T12:13:26.849Z,-2.11
2018-01-15T12:14:36.832Z,-2.1
2018-01-15T12:15:46.551Z,-2
2018-01-15T12:16:56.342Z,-2.04
2018-01-15T12:18:06.399Z,-2.11
2018-01-15T12:19:15.860Z,-2.1
2018-01-15T12:20:25.734Z,-2.13
2018-01-15T12:21:35.479Z,-2.08
2018-01-15T12:22:45.466Z,-2.08
2018-01-15T12:23:55.174Z,-2.04
2018-01-15T12:25:05.153Z,-2.07
2018-01-15T12:26:14.603Z,-2.02
2018-01-15T12:27:24.593Z,-2.08
2018-01-15T12:28:34.048Z,-2.05
2018-01-15T12:29:44.021Z,-2.14
2018-01-15T12:30:53.728Z,-2.13
2018-01-15T12:32:03.439Z,-2.13
2018-01-15T12:33:13.149Z,-2.13
2018-01-15T12:34:22.879Z,-2.11
2018-01-15T12:35:32.384Z,-2.14
2018-01-15T12:36:42.366Z,-2.08
2018-01-15T12:37:52.081Z,-2.13
2018-01-15T12:39:01.795Z,-2.11
2018-01-15T12:40:11.786Z,-2.1
2018-01-15T12:41:21.599Z,-2.18
2018-01-15T12:42:31.308Z,-2.18
2018-01-15T12:43:41.024Z,-2.11
2018-01-15T12:44:50.733Z,-2.13
2018-01-15T12:46:00.447Z,-2.08
2018-01-15T12:47:09.943Z,-2.18
2018-01-15T12:48:19.658Z,-2.08
2018-01-15T12:49:29.366Z,-2.05
2018-01-15T12:50:38.815Z,-2.07
2018-01-15T12:51:48.526Z,-2.02
2018-01-15T12:52:58.605Z,-2.05
2018-01-15T12:54:08.358Z,-2.11
2018-01-15T12:55:17.804Z,-2
2018-01-15T12:56:27.251Z,-2
2018-01-15T12:57:37.230Z,-2.02
2018-01-15T12:58:46.994Z,-1.99
2018-01-15T12:59:56.439Z,-2.02
2018-01-15T13:01:06.180Z,-2.04
2018-01-15T13:02:15.893Z,-1.99
2018-01-15T13:03:25.077Z,-2
2018-01-15T13:04:34.832Z,-2.05
2018-01-15T13:05:44.812Z,-2.11
2018-01-15T13:06:54.785Z,-2.07
2018-01-15T13:08:03.965Z,-2.02
2018-01-15T13:09:13.676Z,-1.97
2018-01-15T13:10:23.750Z,-2
2018-01-15T13:11:32.935Z,-2
2018-01-15T13:12:43.001Z,-2.02
2018-01-15T13:13:53.025Z,-1.92
2018-01-15T13:15:02.732Z,-1.9
2018-01-15T13:16:12.774Z,-1.94
2018-01-15T13:17:22.752Z,-1.86
2018-01-15T13:18:32.461Z,-1.9
2018-01-15T13:19:42.176Z,-1.94
2018-01-15T13:20:52.154Z,-1.92
2018-01-15T13:22:02.131Z,-1.82
2018-01-15T13:23:11.844Z,-1.94
2018-01-15T13:24:21.818Z,-1.86
2018-01-15T13:25:31.266Z,-1.79
2018-01-15T13:26:41.252Z,-1.82
2018-01-15T13:27:50.968Z,-1.87
2018-01-15T13:29:00.946Z,-1.9
2018-01-15T13:30:10.922Z,-1.81
2018-01-15T13:31:20.897Z,-1.92
2018-01-15T13:32:30.345Z,-1.89
2018-01-15T13:33:40.054Z,-1.84
2018-01-15T13:34:50.028Z,-1.78
2018-01-15T13:36:00.004Z,-1.79
2018-01-15T13:37:09.987Z,-1.82
2018-01-15T13:38:19.457Z,-1.81
2018-01-15T13:39:29.300Z,-1.82
2018-01-15T13:40:39.274Z,-1.84
2018-01-15T13:41:49.250Z,-1.81
2018-01-15T13:42:59.219Z,-1.84
2018-01-15T13:44:09.198Z,-1.82
2018-01-15T13:45:19.229Z,-1.87
2018-01-15T13:46:28.995Z,-1.93
2018-01-15T13:47:38.971Z,-1.79
2018-01-15T13:48:48.951Z,-1.89
2018-01-15T13:49:58.420Z,-1.81
2018-01-15T13:51:08.493Z,-1.86
2018-01-15T13:52:18.471Z,-1.79
2018-01-15T13:53:28.505Z,-1.74
2018-01-15T13:54:38.228Z,-1.76
2018-01-15T13:55:48.203Z,-1.74
2018-01-15T13:56:57.961Z,-1.76
2018-01-15T13:58:07.408Z,-1.81
2018-01-15T13:59:17.116Z,-1.74
2018-01-15T14:00:26.034Z,-1.76
2018-01-15T14:01:36.007Z,-1.72
2018-01-15T14:02:46.093Z,-1.76
2018-01-15T14:03:56.072Z,-1.68
2018-01-15T14:05:06.048Z,-1.68
2018-01-15T14:06:16.021Z,-1.72
2018-01-15T14:07:25.999Z,-1.69
2018-01-15T14:08:35.492Z,-1.69
2018-01-15T14:09:45.466Z,-1.64
2018-01-15T14:10:55.505Z,-1.71
2018-01-15T14:12:05.477Z,-1.71
2018-01-15T14:13:14.924Z,-1.63
2018-01-15T14:14:24.633Z,-1.68
2018-01-15T14:15:34.609Z,-1.66
2018-01-15T14:16:44.589Z,-1.69
2018-01-15T14:17:54.560Z,-1.81
2018-01-15T14:19:04.271Z,-1.81
2018-01-15T14:20:14.240Z,-1.82
2018-01-15T14:21:23.686Z,-1.81
2018-01-15T14:22:33.397Z,-1.74
2018-01-15T14:23:42.845Z,-1.76
2018-01-15T14:24:52.818Z,-1.76
2018-01-15T14:26:02.793Z,-1.69
2018-01-15T14:27:12.236Z,-1.68
2018-01-15T14:28:21.947Z,-1.81
2018-01-15T14:29:31.393Z,-1.79
2018-01-15T14:30:41.371Z,-1.76
2018-01-15T14:31:51.469Z,-1.76
2018-01-15T14:33:01.176Z,-1.75
2018-01-15T14:34:11.162Z,-1.72
2018-01-15T14:35:20.918Z,-1.74
2018-01-15T14:36:30.695Z,-1.72
2018-01-15T14:37:40.408Z,-1.74
2018-01-15T14:38:50.116Z,-1.81
2018-01-15T14:40:00.278Z,-1.75
2018-01-15T14:41:09.992Z,-1.74
2018-01-15T14:42:19.704Z,-1.74
2018-01-15T14:43:29.791Z,-1.81
2018-01-15T14:44:39.233Z,-1.75
2018-01-15T14:45:49.208Z,-1.79
2018-01-15T14:46:58.916Z,-1.79
2018-01-15T14:48:08.887Z,-1.76
2018-01-15T14:49:18.618Z,-1.76
2018-01-15T14:50:28.326Z,-1.81
2018-01-15T14:51:38.299Z,-1.78
2018-01-15T14:52:48.276Z,-1.72
2018-01-15T14:53:57.716Z,-1.74
2018-01-15T14:55:07.694Z,-1.74
2018-01-15T14:56:17.670Z,-1.76
2018-01-15T14:57:27.647Z,-1.79
2018-01-15T14:58:37.397Z,-1.69
2018-01-15T14:59:47.111Z,-1.74
2018-01-15T15:00:57.086Z,-1.68
2018-01-15T15:02:07.070Z,-1.78
2018-01-15T15:03:16.515Z,-1.72
2018-01-15T15:04:26.222Z,-1.78